Time;durP1;ratioP1;P1;durP2;ratioP2;P2;SDS_P1;SDS_P2;PMS_P1;PMS_P2;Temp;Humidity;BMP_temperature;BMP_pressure;BME280_temperature;BME280_humidity;BME280_pressure;Samples;Min_cycle;Max_cycle;Signal;HPM_P1;HPM_P2
2023/02/28 00:01:34;;;;;;;7.15;2.40;;;27.80;99.90;;;;;;5044595;28;20036;-61
2023/02/28 00:04:02;;;;;;;6.22;1.85;;;28.00;99.90;;;;;;5037657;28;20127;-61
2023/02/28 00:06:29;;;;;;;10.57;2.47;;;28.20;99.90;;;;;;5044593;28;20032;-61
2023/02/28 00:08:57;;;;;;;7.88;2.40;;;28.40;99.90;;;;;;5044311;28;20029;-61
2023/02/28 00:11:24;;;;;;;6.20;2.38;;;28.70;99.90;;;;;;5037654;28;20028;-61
2023/02/28 00:13:52;;;;;;;4.88;2.22;;;29.00;99.90;;;;;;5039324;28;20025;-63
2023/02/28 00:16:21;;;;;;;7.18;3.28;;;29.10;99.90;;;;;;5037475;28;20020;-62
2023/02/28 00:18:50;;;;;;;6.70;2.50;;;29.20;98.80;;;;;;5035949;28;20814;-62
2023/02/28 00:21:18;;;;;;;6.18;2.17;;;28.50;99.70;;;;;;5040962;28;20440;-62
2023/02/28 00:23:46;;;;;;;6.82;2.42;;;28.40;99.90;;;;;;5041426;28;20041;-63
2023/02/28 00:26:13;;;;;;;9.93;3.30;;;28.60;99.90;;;;;;5042330;28;20539;-62
2023/02/28 00:28:41;;;;;;;5.88;2.15;;;28.90;99.90;;;;;;5046058;28;20124;-62
2023/02/28 00:31:08;;;;;;;7.57;2.40;;;29.10;99.90;;;;;;5046577;28;20016;-62
2023/02/28 00:33:36;;;;;;;9.73;2.67;;;29.40;99.90;;;;;;5042728;28;20049;-62
2023/02/28 00:36:06;;;;;;;9.07;2.65;;;29.50;99.50;;;;;;5042007;28;20020;-62
2023/02/28 00:38:33;;;;;;;8.88;2.67;;;29.50;99.90;;;;;;5052615;28;20063;-62
2023/02/28 00:41:04;;;;;;;8.13;2.75;;;29.60;98.50;;;;;;5050161;28;20104;-63
2023/02/28 00:43:34;;;;;;;6.50;2.65;;;29.80;97.90;;;;;;5055026;28;20131;-62
2023/02/28 00:46:02;;;;;;;7.47;2.40;;;29.50;99.90;;;;;;5050054;28;20016;-62
2023/02/28 00:48:29;;;;;;;7.88;2.30;;;29.80;98.90;;;;;;5051061;28;20024;-63
2023/02/28 00:50:56;;;;;;;8.05;3.25;;;30.40;99.60;;;;;;5059533;28;20458;-62
2023/02/28 00:53:24;;;;;;;5.65;2.28;;;31.00;96.10;;;;;;5053329;28;20021;-69
2023/02/28 00:55:51;;;;;;;5.25;2.40;;;31.10;97.20;;;;;;5053395;28;20047;-62
2023/02/28 00:58:19;;;;;;;6.75;2.22;;;31.20;96.60;;;;;;5063618;28;20056;-62
2023/02/28 01:00:48;;;;;;;7.03;2.67;;;31.20;95.60;;;;;;5053399;28;20119;-62
2023/02/28 01:03:20;;;;;;;5.90;2.40;;;31.20;95.10;;;;;;5056459;28;20017;-63
2023/02/28 01:05:48;;;;;;;8.38;2.88;;;31.10;94.80;;;;;;5047038;28;20032;-63
2023/02/28 01:08:15;;;;;;;8.43;2.85;;;30.80;94.80;;;;;;5047434;28;20102;-62
2023/02/28 01:10:43;;;;;;;8.07;2.47;;;30.60;95.30;;;;;;5054818;28;20051;-61
2023/02/28 01:13:12;;;;;;;8.70;2.85;;;30.50;96.10;;;;;;5051266;28;20032;-62
2023/02/28 01:15:42;;;;;;;9.63;3.35;;;30.20;94.30;;;;;;5056366;28;20052;-62
2023/02/28 01:18:10;;;;;;;9.40;3.42;;;30.00;94.80;;;;;;5048814;28;20108;-62
2023/02/28 01:20:38;;;;;;;8.20;2.83;;;29.60;96.00;;;;;;5061875;28;20043;-61
2023/02/28 01:23:05;;;;;;;12.95;3.40;;;29.30;96.60;;;;;;5057368;28;20033;-62
2023/02/28 01:25:36;;;;;;;9.10;2.70;;;28.90;96.60;;;;;;5048172;28;20036;-62
2023/02/28 01:28:03;;;;;;;10.63;2.92;;;28.40;98.10;;;;;;5045370;28;20520;-62
2023/02/28 01:30:32;;;;;;;8.05;2.75;;;28.10;99.20;;;;;;5045687;28;20540;-62
2023/02/28 01:33:00;;;;;;;8.60;2.67;;;28.00;99.90;;;;;;5046386;28;20072;-64
2023/02/28 01:35:27;;;;;;;7.30;2.67;;;27.90;99.90;;;;;;5051110;28;20522;-61
2023/02/28 01:37:54;;;;;;;4.38;2.45;;;28.00;99.90;;;;;;5050479;28;20052;-62
2023/02/28 01:40:22;;;;;;;8.80;4.13;;;27.90;99.90;;;;;;5052015;28;20359;-62
2023/02/28 01:42:49;;;;;;;11.75;3.17;;;28.30;99.90;;;;;;5054747;28;20029;-62
2023/02/28 01:45:29;;;;;;;7.60;2.70;;;28.60;99.90;;;;;;5047401;28;20033;-63
2023/02/28 01:48:07;;;;;;;7.25;3.30;;;28.90;99.90;;;;;;5061420;28;20037;-62
2023/02/28 01:50:39;;;;;;;7.40;3.80;;;29.00;99.10;;;;;;5043747;28;20037;-62
2023/02/28 01:53:14;;;;;;;9.43;4.00;;;28.90;98.20;;;;;;5049666;28;20524;-62
2023/02/28 01:55:46;;;;;;;10.82;3.38;;;28.80;97.90;;;;;;5055356;28;20612;-62
2023/02/28 01:58:14;;;;;;;7.97;3.17;;;29.10;98.90;;;;;;5054311;28;20025;-62
2023/02/28 02:00:42;;;;;;;5.90;2.70;;;29.40;97.50;;;;;;5056231;28;20099;-61
2023/02/28 02:03:13;;;;;;;8.77;3.05;;;29.20;96.30;;;;;;5059199;28;20447;-62
2023/02/28 02:05:47;;;;;;;6.68;2.90;;;29.10;98.40;;;;;;5053346;28;20107;-62
2023/02/28 02:08:34;;;;;;;6.40;3.28;;;29.60;98.30;;;;;;5051536;28;20052;-61
2023/02/28 02:11:03;;;;;;;10.63;3.88;;;30.20;96.70;;;;;;5047133;28;20024;-62
2023/02/28 02:13:52;;;;;;;7.28;2.85;;;30.40;95.50;;;;;;5047989;28;20036;-62
2023/02/28 02:16:35;;;;;;;10.63;3.75;;;30.80;95.10;;;;;;5054116;28;20493;-61
2023/02/28 02:19:26;;;;;;;8.07;3.03;;;31.00;94.30;;;;;;5045773;28;20029;-62
2023/02/28 02:22:12;;;;;;;6.00;2.45;;;31.10;92.40;;;;;;5045728;28;20088;-62
2023/02/28 02:24:48;;;;;;;7.22;2.42;;;31.10;92.80;;;;;;5042756;28;20103;-61
2023/02/28 02:27:51;;;;;;;6.95;2.70;;;30.50;94.80;;;;;;5056444;28;20032;-62
2023/02/28 02:30:42;;;;;;;5.78;2.88;;;30.50;93.10;;;;;;5046020;28;20170;-62
2023/02/28 02:33:30;;;;;;;5.35;2.80;;;30.70;95.00;;;;;;5043826;28;20479;-62
2023/02/28 02:36:22;;;;;;;5.57;2.45;;;30.90;93.50;;;;;;5043810;28;20052;-62
2023/02/28 02:38:52;;;;;;;8.70;3.00;;;30.90;93.60;;;;;;5051401;28;20036;-63
2023/02/28 02:41:53;;;;;;;5.78;2.88;;;30.50;92.40;;;;;;5049965;28;20032;-62
2023/02/28 02:44:44;;;;;;;5.72;2.88;;;30.30;92.70;;;;;;5046990;28;20608;-61
2023/02/28 02:47:16;;;;;;;3.67;2.03;;;29.70;94.00;;;;;;5038792;28;20044;-62
2023/02/28 02:49:52;;;;;;;7.60;2.45;;;29.40;95.30;;;;;;5051450;28;20753;-62
2023/02/28 02:52:23;;;;;;;5.22;2.70;;;29.30;97.30;;;;;;5052509;28;20031;-62
2023/02/28 02:54:55;;;;;;;7.20;2.95;;;29.10;95.50;;;;;;5036060;28;20035;-61
2023/02/28 02:57:54;;;;;;;7.28;2.40;;;29.20;96.20;;;;;;5056366;28;20039;-62
2023/02/28 03:00:26;;;;;;;10.00;3.70;;;29.40;96.40;;;;;;5045811;28;20056;-62
2023/02/28 03:02:56;;;;;;;7.00;2.45;;;29.50;94.20;;;;;;5059007;28;20032;-62
2023/02/28 03:05:47;;;;;;;4.82;2.40;;;29.60;94.10;;;;;;5062513;28;20031;-62
2023/02/28 03:08:15;;;;;;;6.97;2.30;;;29.30;94.20;;;;;;5050791;28;20032;-62
2023/02/28 03:10:46;;;;;;;5.53;2.38;;;29.10;96.10;;;;;;5048435;28;20094;-62
2023/02/28 03:13:45;;;;;;;8.18;2.95;;;28.80;97.30;;;;;;5055599;28;20030;-62
2023/02/28 03:16:30;;;;;;;3.78;1.80;;;28.80;96.80;;;;;;5046723;28;20150;-61
2023/02/28 03:19:38;;;;;;;6.15;3.22;;;28.50;96.10;;;;;;5048182;28;20056;-62
2023/02/28 03:22:15;;;;;;;8.13;2.80;;;28.00;97.50;;;;;;5056067;28;20029;-62
2023/02/28 03:25:09;;;;;;;7.65;2.78;;;28.00;99.80;;;;;;5048381;28;20130;-63
2023/02/28 03:27:58;;;;;;;5.27;2.17;;;27.90;99.40;;;;;;5059331;28;20028;-62
2023/02/28 03:30:36;;;;;;;4.75;2.40;;;28.00;99.50;;;;;;5051078;28;20310;-61
2023/02/28 03:33:13;;;;;;;8.32;3.10;;;28.10;98.80;;;;;;5062330;28;20576;-61
2023/02/28 03:35:50;;;;;;;7.97;2.20;;;27.90;98.70;;;;;;5059266;28;20090;-62
2023/02/28 03:38:43;;;;;;;7.40;2.40;;;28.10;98.60;;;;;;5052288;28;20075;-62
2023/02/28 03:41:24;;;;;;;4.57;2.38;;;28.30;98.30;;;;;;5042061;28;20025;-61
2023/02/28 03:44:03;;;;;;;6.20;2.00;;;28.30;98.60;;;;;;5053825;28;20029;-61
2023/02/28 03:46:37;;;;;;;5.90;2.30;;;28.30;98.50;;;;;;5048979;28;20033;-61
2023/02/28 03:49:14;;;;;;;;;;;28.30;98.50;;;;;;5064744;28;20047;-61
2023/02/28 03:51:45;;;;;;;7.55;2.65;;;28.40;98.10;;;;;;5056685;28;19909;-61
2023/02/28 03:54:28;;;;;;;6.78;2.50;;;28.50;98.30;;;;;;5060933;28;20020;-61
2023/02/28 03:57:23;;;;;;;5.03;2.30;;;28.60;98.20;;;;;;5037008;28;20020;-62
2023/02/28 04:00:19;;;;;;;;;;;28.90;97.80;;;;;;5052853;28;20037;-61
2023/02/28 04:02:52;;;;;;;7.45;2.55;;;29.00;97.60;;;;;;5023296;28;19908;-63
2023/02/28 04:05:21;;;;;;;7.63;2.23;;;28.80;96.90;;;;;;5046861;28;20036;-62
2023/02/28 04:07:48;;;;;;;6.13;2.53;;;28.70;97.90;;;;;;5047690;28;20016;-63
2023/02/28 04:10:16;;;;;;;4.47;2.28;;;28.90;96.90;;;;;;5051180;28;20067;-63
2023/02/28 04:12:44;;;;;;;5.95;2.60;;;29.00;97.00;;;;;;5054757;28;20020;-63
2023/02/28 04:15:11;;;;;;;4.82;2.20;;;29.30;96.50;;;;;;5053394;28;20066;-63
2023/02/28 04:17:39;;;;;;;7.22;2.20;;;29.60;96.70;;;;;;5057320;28;20131;-62
2023/02/28 04:20:09;;;;;;;5.38;2.05;;;29.90;96.10;;;;;;5052602;28;20086;-62
2023/02/28 04:22:37;;;;;;;4.75;2.60;;;30.20;95.90;;;;;;5064085;28;20024;-62
2023/02/28 04:25:05;;;;;;;5.95;2.28;;;30.40;95.30;;;;;;5046357;28;20041;-67
2023/02/28 04:27:33;;;;;;;6.28;2.10;;;30.80;94.60;;;;;;5052732;28;20028;-64
2023/02/28 04:30:00;;;;;;;5.10;1.63;;;31.00;93.20;;;;;;5061190;28;20564;-64
2023/02/28 04:32:27;;;;;;;7.03;1.80;;;30.60;93.70;;;;;;5050154;28;20402;-63
2023/02/28 04:34:55;;;;;;;8.02;1.95;;;30.20;93.30;;;;;;5062670;28;20390;-62
2023/02/28 04:37:27;;;;;;;4.20;1.90;;;29.40;94.80;;;;;;5049939;28;20029;-63
2023/02/28 04:39:55;;;;;;;6.30;2.05;;;28.90;96.20;;;;;;5050790;28;20029;-63
2023/02/28 04:42:22;;;;;;;7.20;2.35;;;28.60;96.80;;;;;;5048244;28;20021;-63
2023/02/28 04:44:49;;;;;;;5.97;1.77;;;28.30;98.20;;;;;;5049671;28;20040;-64
2023/02/28 04:47:17;;;;;;;5.32;2.10;;;28.30;98.70;;;;;;5043039;28;20031;-64
2023/02/28 04:49:44;;;;;;;5.45;1.90;;;28.30;99.30;;;;;;5050191;28;20490;-63
2023/02/28 04:52:13;;;;;;;3.42;1.33;;;28.40;99.00;;;;;;5062549;28;20151;-63
2023/02/28 04:54:40;;;;;;;7.75;1.90;;;28.50;98.50;;;;;;5044265;28;20033;-64
2023/02/28 04:57:07;;;;;;;4.50;1.85;;;28.40;98.80;;;;;;5043980;28;20090;-61
2023/02/28 04:59:35;;;;;;;5.15;1.90;;;28.40;99.20;;;;;;5045277;28;20446;-61
2023/02/28 05:02:06;;;;;;;5.68;1.75;;;28.40;98.50;;;;;;5047171;28;20029;-62
2023/02/28 05:04:35;;;;;;;5.03;1.85;;;28.70;99.80;;;;;;5051137;28;20051;-62
2023/02/28 05:07:03;;;;;;;6.43;1.88;;;29.00;98.80;;;;;;5052091;28;20570;-62
2023/02/28 05:09:30;;;;;;;5.03;2.00;;;29.00;97.70;;;;;;5047840;28;20544;-62
2023/02/28 05:11:58;;;;;;;5.63;2.20;;;29.10;97.50;;;;;;5062981;28;20059;-62
2023/02/28 05:14:25;;;;;;;4.85;2.03;;;29.10;97.70;;;;;;5046298;28;20029;-62
2023/02/28 05:16:52;;;;;;;4.97;1.63;;;29.10;97.70;;;;;;5053555;28;20028;-61
2023/02/28 05:19:21;;;;;;;4.35;2.10;;;29.30;97.50;;;;;;5060142;28;20036;-63
2023/02/28 05:21:54;;;;;;;3.88;1.88;;;29.40;97.30;;;;;;5045033;28;20426;-63
2023/02/28 05:24:24;;;;;;;4.40;1.98;;;29.50;97.00;;;;;;5043097;28;20033;-62
2023/02/28 05:26:54;;;;;;;4.80;1.85;;;29.60;96.90;;;;;;5045022;28;20017;-63
2023/02/28 05:29:22;;;;;;;8.45;2.20;;;29.90;96.20;;;;;;5042897;28;20025;-62
2023/02/28 05:31:50;;;;;;;2.65;1.40;;;29.80;95.80;;;;;;5042090;28;20403;-62
2023/02/28 05:34:17;;;;;;;4.88;1.80;;;29.70;96.40;;;;;;5043781;28;20029;-62
2023/02/28 05:36:45;;;;;;;6.22;2.25;;;29.80;95.30;;;;;;5046029;28;20477;-62
2023/02/28 05:39:12;;;;;;;4.05;1.63;;;29.60;96.10;;;;;;5044130;28;20032;-62
2023/02/28 05:41:41;;;;;;;4.30;2.05;;;29.60;96.50;;;;;;5045509;28;20110;-65
2023/02/28 05:44:09;;;;;;;6.07;2.08;;;29.70;96.10;;;;;;5041627;28;20056;-61
2023/02/28 05:46:38;;;;;;;4.65;2.10;;;29.60;96.20;;;;;;5044747;28;20021;-62
2023/02/28 05:49:05;;;;;;;5.50;2.67;;;29.50;96.10;;;;;;5044620;28;20100;-61
2023/02/28 05:51:34;;;;;;;3.55;1.60;;;29.30;96.80;;;;;;5043530;28;20060;-61
2023/02/28 05:54:02;;;;;;;4.22;1.73;;;29.20;97.00;;;;;;5043767;28;20065;-62
2023/02/28 05:56:30;;;;;;;7.57;1.85;;;28.90;97.80;;;;;;5042793;28;20581;-61
2023/02/28 05:58:57;;;;;;;5.93;2.15;;;28.70;98.20;;;;;;5041275;28;20020;-62
2023/02/28 06:01:39;;;;;;;4.55;1.70;;;28.10;99.90;;;;;;5058631;28;20446;-61
2023/02/28 06:04:10;;;;;;;5.70;2.10;;;27.90;99.90;;;;;;5044263;28;20034;-62
2023/02/28 06:06:39;;;;;;;7.25;2.33;;;27.90;99.90;;;;;;5064308;28;20029;-71
2023/02/28 06:09:06;;;;;;;5.30;1.95;;;27.90;99.90;;;;;;5045233;28;20443;-62
2023/02/28 06:11:34;;;;;;;8.40;2.38;;;27.80;99.90;;;;;;5042786;28;20055;-61
2023/02/28 06:14:03;;;;;;;5.75;3.53;;;27.80;99.90;;;;;;5042160;28;20087;-61
2023/02/28 06:16:33;;;;;;;6.60;2.35;;;27.70;99.90;;;;;;5044371;28;20238;-62
2023/02/28 06:19:03;;;;;;;6.85;2.75;;;27.70;99.90;;;;;;5040649;28;20163;-62
2023/02/28 06:21:31;;;;;;;7.10;2.50;;;27.60;99.90;;;;;;5054921;28;20016;-62
2023/02/28 06:23:59;;;;;;;6.47;2.42;;;27.70;99.90;;;;;;5052452;28;20086;-61
2023/02/28 06:26:27;;;;;;;4.47;2.40;;;27.60;99.90;;;;;;5048876;28;20033;-60
2023/02/28 06:28:55;;;;;;;6.05;3.05;;;27.60;99.90;;;;;;5051458;28;20029;-61
2023/02/28 06:31:23;;;;;;;6.47;2.83;;;27.60;99.90;;;;;;5040003;28;20020;-62
2023/02/28 06:33:50;;;;;;;9.35;2.97;;;27.50;99.90;;;;;;5041745;28;20025;-61
2023/02/28 06:36:18;;;;;;;5.60;2.92;;;27.40;99.90;;;;;;5044552;28;20025;-62
2023/02/28 06:38:51;;;;;;;5.93;2.72;;;27.40;99.90;;;;;;5040113;28;20039;-61
2023/02/28 06:41:19;;;;;;;5.47;3.13;;;27.20;99.90;;;;;;5043470;28;20024;-62
2023/02/28 06:43:46;;;;;;;6.05;2.80;;;27.10;99.90;;;;;;5042562;28;20045;-61
2023/02/28 06:46:15;;;;;;;8.07;3.67;;;27.10;99.90;;;;;;5042370;28;20025;-61
2023/02/28 06:48:44;;;;;;;7.15;3.17;;;27.10;99.90;;;;;;5041379;28;20078;-61
2023/02/28 06:51:15;;;;;;;5.82;2.80;;;27.10;99.90;;;;;;5042597;28;20030;-61
2023/02/28 06:53:42;;;;;;;5.03;2.88;;;27.00;99.90;;;;;;5039408;28;20029;-62
2023/02/28 06:56:12;;;;;;;9.38;3.92;;;26.90;99.90;;;;;;5049115;28;20052;-61
2023/02/28 06:58:40;;;;;;;5.20;3.70;;;26.80;99.90;;;;;;5045796;28;20477;-61
2023/02/28 07:01:08;;;;;;;8.20;3.50;;;26.80;99.90;;;;;;5045246;28;20024;-60
2023/02/28 07:03:36;;;;;;;8.10;3.42;;;26.70;99.90;;;;;;5045831;28;20051;-61
2023/02/28 07:06:05;;;;;;;11.85;3.22;;;26.60;99.90;;;;;;5047705;28;20029;-61
2023/02/28 07:08:33;;;;;;;5.03;2.25;;;26.40;99.90;;;;;;5047710;28;20029;-61
2023/02/28 07:11:00;;;;;;;7.45;2.55;;;26.40;99.90;;;;;;5044331;28;20108;-62
2023/02/28 07:13:28;;;;;;;7.53;3.28;;;26.30;99.90;;;;;;5045063;28;20028;-62
2023/02/28 07:16:04;;;;;;;5.93;2.83;;;26.40;99.90;;;;;;5044579;28;20036;-61
2023/02/28 07:18:32;;;;;;;5.63;2.75;;;26.40;99.90;;;;;;5044619;28;20512;-61
2023/02/28 07:21:01;;;;;;;4.80;3.00;;;26.30;99.90;;;;;;5057807;28;20021;-61
2023/02/28 07:23:29;;;;;;;6.25;2.83;;;26.30;99.90;;;;;;5049313;28;20043;-61
2023/02/28 07:25:56;;;;;;;5.70;2.53;;;26.20;99.90;;;;;;5043375;28;20029;-61
2023/02/28 07:28:24;;;;;;;4.13;2.78;;;26.00;99.90;;;;;;5048710;28;20025;-61
2023/02/28 07:30:51;;;;;;;6.75;2.70;;;25.90;99.90;;;;;;5047157;28;20028;-61
2023/02/28 07:33:19;;;;;;;6.22;3.00;;;25.90;99.90;;;;;;5044420;28;20076;-61
2023/02/28 07:35:46;;;;;;;4.75;2.95;;;25.80;99.90;;;;;;5042564;28;20453;-62
2023/02/28 07:38:14;;;;;;;5.22;2.50;;;25.80;99.90;;;;;;5039621;28;20713;-61
2023/02/28 07:40:41;;;;;;;4.32;2.33;;;25.70;99.90;;;;;;5042205;28;20024;-64
2023/02/28 07:43:09;;;;;;;5.22;2.72;;;25.70;99.90;;;;;;5047803;28;20405;-62
2023/02/28 07:45:36;;;;;;;5.80;3.13;;;25.60;99.90;;;;;;5041183;28;20831;-58
2023/02/28 07:48:04;;;;;;;9.05;3.13;;;25.50;99.90;;;;;;5043765;28;20468;-61
2023/02/28 07:50:31;;;;;;;9.10;3.13;;;25.40;99.90;;;;;;5048364;28;20035;-61
2023/02/28 07:53:01;;;;;;;5.53;2.95;;;25.40;99.90;;;;;;5047527;28;20074;-61
2023/02/28 07:55:29;;;;;;;7.43;3.17;;;25.30;99.90;;;;;;5053670;28;20033;-60
2023/02/28 07:57:58;;;;;;;8.95;3.25;;;25.20;99.90;;;;;;5051750;28;20102;-60
2023/02/28 08:00:25;;;;;;;6.10;2.47;;;25.20;99.90;;;;;;5044724;28;20035;-61
2023/02/28 08:02:53;;;;;;;9.70;3.03;;;25.10;99.90;;;;;;5056231;28;20028;-60
2023/02/28 08:05:20;;;;;;;5.18;2.20;;;25.10;99.90;;;;;;5043405;28;20781;-60
2023/02/28 08:07:50;;;;;;;5.05;2.00;;;25.00;99.90;;;;;;5039166;28;20028;-59
2023/02/28 08:10:18;;;;;;;6.85;2.78;;;24.90;99.90;;;;;;5054280;28;20094;-60
2023/02/28 08:12:45;;;;;;;7.10;2.20;;;24.80;99.90;;;;;;5060955;28;20032;-60
2023/02/28 08:15:12;;;;;;;4.97;2.25;;;24.60;99.90;;;;;;5046689;28;20029;-60
2023/02/28 08:17:40;;;;;;;4.30;2.00;;;24.60;99.90;;;;;;5053638;28;20060;-61
2023/02/28 08:20:10;;;;;;;5.10;1.95;;;24.60;99.90;;;;;;5052221;28;20033;-60
2023/02/28 08:22:37;;;;;;;9.85;2.60;;;24.50;99.90;;;;;;5043788;28;20038;-60
2023/02/28 08:25:07;;;;;;;5.97;2.03;;;24.40;99.90;;;;;;5044849;28;20450;-60
2023/02/28 08:27:35;;;;;;;5.65;2.83;;;24.40;99.90;;;;;;5053701;28;20108;-60
2023/02/28 08:30:03;;;;;;;6.70;2.35;;;24.30;99.90;;;;;;5044343;28;20098;-61
2023/02/28 08:32:30;;;;;;;6.28;2.90;;;24.30;99.90;;;;;;5044346;28;20056;-60
2023/02/28 08:34:58;;;;;;;8.13;2.47;;;24.30;99.90;;;;;;5042867;28;20035;-60
2023/02/28 08:37:26;;;;;;;9.30;2.33;;;24.20;99.90;;;;;;5045565;28;20051;-61
2023/02/28 08:39:53;;;;;;;7.30;2.60;;;24.10;99.90;;;;;;5040552;28;20419;-60
2023/02/28 08:42:20;;;;;;;10.45;3.65;;;24.10;99.90;;;;;;5043994;28;20524;-61
2023/02/28 08:44:48;;;;;;;7.60;2.30;;;24.10;99.90;;;;;;5042719;28;20035;-59
2023/02/28 08:47:16;;;;;;;6.85;2.60;;;24.00;99.90;;;;;;5042927;28;20025;-60
2023/02/28 08:49:43;;;;;;;5.35;2.80;;;23.90;99.90;;;;;;5040287;28;20029;-60
2023/02/28 08:52:11;;;;;;;7.18;2.40;;;23.90;99.90;;;;;;5057135;28;20029;-60
2023/02/28 08:54:38;;;;;;;9.07;2.55;;;23.90;99.90;;;;;;5044814;28;20020;-62
2023/02/28 08:57:06;;;;;;;6.13;1.88;;;23.80;99.90;;;;;;5041826;28;20104;-61
2023/02/28 08:59:33;;;;;;;5.00;3.15;;;23.80;99.90;;;;;;5043607;28;20036;-61
2023/02/28 09:02:01;;;;;;;9.00;1.77;;;23.80;99.90;;;;;;5043762;28;20035;-60
2023/02/28 09:04:30;;;;;;;6.35;1.88;;;23.80;99.90;;;;;;5043219;28;20033;-61
2023/02/28 09:06:58;;;;;;;7.97;2.35;;;23.70;99.90;;;;;;5049027;28;20057;-61
2023/02/28 09:09:27;;;;;;;6.10;2.28;;;23.70;99.90;;;;;;5046095;28;20122;-61
2023/02/28 09:11:57;;;;;;;4.68;1.60;;;23.70;99.90;;;;;;5046113;28;20025;-60
2023/02/28 09:14:24;;;;;;;12.32;2.03;;;23.60;99.90;;;;;;5041548;28;20060;-60
2023/02/28 09:16:52;;;;;;;6.32;2.20;;;23.60;99.90;;;;;;5042696;28;20025;-61
2023/02/28 09:19:19;;;;;;;11.50;2.17;;;23.60;99.90;;;;;;5051502;28;20303;-61
2023/02/28 09:21:46;;;;;;;7.88;1.95;;;23.60;99.90;;;;;;5046973;28;20025;-61
2023/02/28 09:24:15;;;;;;;4.63;1.90;;;23.60;99.90;;;;;;5042457;28;20127;-59
2023/02/28 09:26:42;;;;;;;6.50;2.92;;;23.60;99.90;;;;;;5049977;28;20050;-59
2023/02/28 09:29:10;;;;;;;9.07;2.97;;;23.60;99.90;;;;;;5043547;28;20033;-61
2023/02/28 09:31:38;;;;;;;8.07;3.53;;;23.60;99.90;;;;;;5042796;28;20383;-59
2023/02/28 09:34:06;;;;;;;5.78;2.20;;;23.50;99.90;;;;;;5042625;28;20036;-58
2023/02/28 09:36:34;;;;;;;6.47;2.50;;;23.60;99.90;;;;;;5044963;28;20394;-58
2023/02/28 09:39:03;;;;;;;6.00;2.10;;;23.50;99.90;;;;;;5054116;28;20028;-58
2023/02/28 09:41:39;;;;;;;11.38;2.83;;;23.50;99.90;;;;;;5038387;28;20109;-58
2023/02/28 09:44:14;;;;;;;6.80;2.30;;;23.50;99.90;;;;;;5044976;28;20037;-58
2023/02/28 09:46:45;;;;;;;;;;;23.50;99.90;;;;;;5040031;28;20029;-60
2023/02/28 09:49:28;;;;;;;8.00;2.25;;;23.50;99.90;;;;;;5043359;28;19916;-58
2023/02/28 09:52:12;;;;;;;6.35;2.30;;;23.50;99.90;;;;;;5042390;28;20498;-59
2023/02/28 09:54:40;;;;;;;6.47;1.73;;;23.50;99.90;;;;;;5060755;28;20095;-59
2023/02/28 09:57:25;;;;;;;7.40;2.22;;;23.50;99.90;;;;;;5052068;28;20437;-59
2023/02/28 09:59:58;;;;;;;7.07;2.58;;;23.50;99.90;;;;;;5039712;28;20029;-59
2023/02/28 10:02:47;;;;;;;4.72;1.60;;;23.50;99.90;;;;;;5052360;28;20024;-59
2023/02/28 10:05:18;;;;;;;8.75;3.15;;;23.40;99.90;;;;;;5036446;28;20043;-60
2023/02/28 10:08:04;;;;;;;7.28;2.20;;;23.40;99.90;;;;;;5052235;28;20028;-59
2023/02/28 10:10:58;;;;;;;7.22;1.88;;;23.40;99.90;;;;;;5051308;28;20048;-60
2023/02/28 10:13:34;;;;;;;5.57;2.13;;;23.40;99.90;;;;;;5043625;28;20024;-61
2023/02/28 10:16:17;;;;;;;6.57;2.28;;;23.40;99.90;;;;;;5061714;28;20124;-60
2023/02/28 10:19:00;;;;;;;6.07;1.90;;;23.40;99.90;;;;;;5033357;28;20029;-59
2023/02/28 10:21:27;;;;;;;5.95;2.03;;;23.30;99.90;;;;;;5045759;28;20037;-59
2023/02/28 10:24:23;;;;;;;8.98;2.08;;;23.30;99.90;;;;;;5041068;28;20045;-58
2023/02/28 10:26:57;;;;;;;5.03;1.85;;;23.30;99.90;;;;;;5036633;28;20047;-59
2023/02/28 10:29:25;;;;;;;5.38;2.10;;;23.30;99.90;;;;;;5046326;28;20033;-58
2023/02/28 10:31:52;;;;;;;6.53;1.98;;;23.30;99.90;;;;;;5042605;28;20033;-59
2023/02/28 10:34:20;;;;;;;9.40;3.25;;;23.30;99.90;;;;;;5040166;28;20678;-60
2023/02/28 10:36:49;;;;;;;6.47;1.70;;;23.30;99.90;;;;;;5045122;28;20023;-57
2023/02/28 10:39:41;;;;;;;8.10;1.90;;;23.30;99.90;;;;;;5044502;28;20029;-58
2023/02/28 10:42:26;;;;;;;5.18;2.08;;;23.20;99.90;;;;;;5038871;28;20032;-58
2023/02/28 10:45:16;;;;;;;5.68;2.03;;;23.20;99.90;;;;;;5037001;28;20044;-58
2023/02/28 10:48:23;;;;;;;5.90;2.90;;;23.20;99.90;;;;;;5047875;28;20025;-58
2023/02/28 10:50:53;;;;;;;6.35;2.33;;;23.20;99.90;;;;;;5063866;28;20094;-58
2023/02/28 10:53:36;;;;;;;4.88;2.20;;;23.20;99.90;;;;;;5048593;28;20033;-63
2023/02/28 10:56:16;;;;;;;8.05;2.40;;;23.20;99.90;;;;;;5058782;28;20489;-58
2023/02/28 10:59:15;;;;;;;7.30;2.15;;;23.20;99.90;;;;;;5047869;28;20032;-58
2023/02/28 11:01:48;;;;;;;5.20;1.80;;;23.20;99.90;;;;;;5045206;28;20059;-59
2023/02/28 11:04:36;;;;;;;9.20;2.50;;;23.20;99.90;;;;;;5052780;28;20073;-58
2023/02/28 11:07:07;;;;;;;13.07;4.70;;;23.20;99.90;;;;;;5063216;28;20029;-58
2023/02/28 11:09:38;;;;;;;6.15;2.17;;;23.20;99.90;;;;;;5040576;28;20557;-58
2023/02/28 11:12:28;;;;;;;9.32;2.85;;;23.20;99.90;;;;;;5043277;28;20513;-58
2023/02/28 11:15:19;;;;;;;7.65;2.38;;;23.20;99.90;;;;;;5033985;28;20072;-58
2023/02/28 11:18:17;;;;;;;9.80;2.22;;;23.20;99.90;;;;;;5041593;28;20036;-58
2023/02/28 11:20:54;;;;;;;8.05;2.25;;;23.20;99.90;;;;;;5031560;28;20401;-59
2023/02/28 11:23:25;;;;;;;7.18;2.70;;;23.20;99.90;;;;;;5044258;28;20077;-60
2023/02/28 11:25:56;;;;;;;9.13;2.40;;;23.20;99.90;;;;;;5047656;28;20024;-58
2023/02/28 11:28:32;;;;;;;7.63;2.08;;;23.20;99.90;;;;;;5043487;28;20067;-58
2023/02/28 11:31:20;;;;;;;8.20;2.03;;;23.20;99.90;;;;;;5033614;28;20446;-58
2023/02/28 11:33:56;;;;;;;4.95;2.13;;;23.20;99.90;;;;;;5055632;28;20033;-58
2023/02/28 11:36:26;;;;;;;5.75;2.05;;;23.10;99.90;;;;;;5052122;28;20482;-58
2023/02/28 11:39:05;;;;;;;4.68;2.30;;;23.10;99.90;;;;;;5045829;28;21425;-58
2023/02/28 11:41:57;;;;;;;7.15;2.35;;;23.00;99.90;;;;;;5044731;28;20051;-59
2023/02/28 11:44:30;;;;;;;7.28;2.30;;;22.90;99.90;;;;;;5044684;28;20086;-58
2023/02/28 11:47:30;;;;;;;6.30;2.60;;;22.80;99.90;;;;;;5062103;28;20025;-58
2023/02/28 11:50:21;;;;;;;7.05;2.53;;;22.80;99.90;;;;;;5035974;28;20282;-58
2023/02/28 11:52:54;;;;;;;8.63;3.03;;;22.70;99.90;;;;;;5039441;28;20100;-57
2023/02/28 11:55:39;;;;;;;5.77;2.27;;;22.60;99.90;;;;;;5041185;28;20029;-58
2023/02/28 11:58:06;;;;;;;;;;;22.60;99.90;;;;;;5045561;28;20398;-58
2023/02/28 12:00:36;;;;;;;11.02;2.35;;;22.60;99.90;;;;;;5058920;28;20282;-58
2023/02/28 12:03:12;;;;;;;10.60;2.88;;;22.60;99.90;;;;;;5058853;28;20387;-58
2023/02/28 12:05:50;;;;;;;11.77;2.83;;;22.60;99.90;;;;;;5052075;28;20123;-58
2023/02/28 12:08:58;;;;;;;6.57;2.92;;;22.60;99.90;;;;;;5041246;28;20079;-59
2023/02/28 12:11:31;;;;;;;10.82;3.20;;;22.70;99.90;;;;;;5026488;28;20127;-58
2023/02/28 12:14:47;;;;;;;7.40;3.10;;;22.70;99.90;;;;;;5043065;28;20025;-58
2023/02/28 12:17:35;;;;;;;6.90;3.10;;;22.70;99.90;;;;;;5036062;28;20044;-59
2023/02/28 12:20:18;;;;;;;5.82;2.60;;;22.60;99.90;;;;;;5046170;28;20029;-59
2023/02/28 12:23:04;;;;;;;5.35;2.63;;;22.70;99.90;;;;;;5040248;28;20433;-58
2023/02/28 12:25:50;;;;;;;6.47;2.78;;;22.70;99.90;;;;;;5044993;28;20075;-58
2023/02/28 12:28:27;;;;;;;8.18;3.63;;;22.60;99.90;;;;;;5046924;28;20025;-58
2023/02/28 12:31:18;;;;;;;13.80;3.47;;;22.60;99.90;;;;;;5047042;28;20023;-58
2023/02/28 12:33:53;;;;;;;7.45;3.03;;;22.50;99.90;;;;;;5044855;28;20508;-59
2023/02/28 12:36:22;;;;;;;7.05;3.15;;;22.40;99.90;;;;;;5027517;28;20134;-58
2023/02/28 12:39:01;;;;;;;8.85;3.63;;;22.30;99.90;;;;;;5037273;28;20040;-58
2023/02/28 12:41:47;;;;;;;7.43;3.38;;;22.20;99.90;;;;;;5046920;28;20032;-59
2023/02/28 12:44:46;;;;;;;17.55;4.15;;;22.20;99.90;;;;;;5045687;28;20033;-59
2023/02/28 12:47:18;;;;;;;8.82;3.90;;;22.20;99.90;;;;;;5044042;28;20452;-58
2023/02/28 12:50:07;;;;;;;7.95;3.25;;;22.20;99.90;;;;;;5046775;28;20486;-59
2023/02/28 12:53:01;;;;;;;9.50;3.70;;;22.20;99.90;;;;;;5042615;28;20417;-58
2023/02/28 12:56:03;;;;;;;14.52;4.53;;;22.20;99.90;;;;;;5041676;28;20040;-59
2023/02/28 12:58:43;;;;;;;7.63;3.60;;;22.20;99.90;;;;;;5039699;28;20805;-58
2023/02/28 13:01:43;;;;;;;8.75;3.85;;;22.30;99.90;;;;;;5045303;28;20179;-62
2023/02/28 13:04:58;;;;;;;11.00;3.67;;;22.30;99.90;;;;;;5036400;28;20505;-59
2023/02/28 13:07:38;;;;;;;9.37;3.77;;;22.30;99.90;;;;;;5041388;28;20068;-59
2023/02/28 13:10:07;;;;;;;9.40;4.13;;;22.40;99.90;;;;;;5046067;28;20021;-59
2023/02/28 13:12:36;;;;;;;8.95;4.28;;;22.40;99.90;;;;;;5046577;28;20029;-59
2023/02/28 13:15:29;;;;;;;12.82;5.07;;;22.50;99.90;;;;;;5039043;28;20021;-59
2023/02/28 13:18:01;;;;;;;13.40;5.22;;;22.50;99.90;;;;;;5047321;28;21669;-60
2023/02/28 13:20:47;;;;;;;10.77;4.95;;;22.60;99.90;;;;;;5045161;28;20033;-58
2023/02/28 13:23:56;;;;;;;10.07;5.25;;;22.60;99.90;;;;;;5046604;28;20044;-58